TimeEST,TemperatureF,Dew PointF,Humidity,Sea Level PressureIn,VisibilityMPH,Wind Direction,Wind SpeedMPH,Gust SpeedMPH,PrecipitationIn,Events,Conditions,WindDirDegrees,DateUTC
12:54 AM,57.9,46.0,65,29.88,10.0,SSW,12.7,20.7,0.00,Rain,Light Rain,200,2007-11-06 05:54:00
1:54 AM,55.9,48.0,75,29.86,10.0,Variable,5.8,-,0.01,Rain,Light Rain,0,2007-11-06 06:54:00
2:54 AM,55.0,48.9,80,29.82,10.0,South,6.9,-,0.00,,Overcast,190,2007-11-06 07:54:00
3:54 AM,54.0,51.1,90,29.83,7.0,NNW,10.4,-,0.00,Rain,Light Rain,330,2007-11-06 08:54:00
4:15 AM,53.6,50.0,88,29.89,5.0,NNW,13.8,20.7,0.00,Rain,Light Rain,340,2007-11-06 09:15:00
4:25 AM,51.8,48.2,88,29.90,9.0,North,13.8,25.3,0.00,Rain,Light Rain,350,2007-11-06 09:25:00
4:51 AM,48.2,42.8,82,29.91,10.0,North,18.4,27.6,0.00,Rain,Light Rain,350,2007-11-06 09:51:00
4:54 AM,46.9,42.1,83,29.88,10.0,North,18.4,27.6,0.00,,Overcast,350,2007-11-06 09:54:00
5:09 AM,44.6,41.0,87,29.93,7.0,North,19.6,28.8,0.00,Rain,Light Rain,350,2007-11-06 10:09:00
5:31 AM,44.6,39.2,81,29.93,10.0,NNW,21.9,32.2,0.00,,Overcast,340,2007-11-06 10:31:00
5:39 AM,44.6,39.2,81,29.94,10.0,NNW,21.9,32.2,0.00,,Overcast,340,2007-11-06 10:39:00
5:51 AM,44.6,37.4,76,29.95,10.0,North,21.9,29.9,0.00,,Overcast,350,2007-11-06 10:51:00
5:54 AM,44.1,37.0,76,29.93,10.0,North,21.9,29.9,0.00,,Overcast,350,2007-11-06 10:54:00
6:44 AM,44.6,33.8,66,29.98,10.0,NNW,20.7,27.6,N/A,,Mostly Cloudy,340,2007-11-06 11:44:00
6:54 AM,44.1,33.1,65,29.97,10.0,NNW,18.4,26.5,N/A,,Overcast,340,2007-11-06 11:54:00
7:54 AM,43.0,30.0,60,30.00,10.0,NNW,21.9,29.9,N/A,,Overcast,340,2007-11-06 12:54:00
8:01 AM,42.8,28.4,57,30.02,10.0,NNW,18.4,27.6,N/A,,Overcast,340,2007-11-06 13:01:00
8:54 AM,43.0,28.0,56,30.01,10.0,North,17.3,23.0,N/A,,Clear,350,2007-11-06 13:54:00
9:54 AM,43.0,25.0,49,30.02,10.0,NNW,21.9,28.8,N/A,,Clear,330,2007-11-06 14:54:00
10:54 AM,45.0,23.0,42,30.02,10.0,NNW,18.4,23.0,N/A,,Clear,330,2007-11-06 15:54:00
11:54 AM,46.9,19.0,33,30.01,10.0,North,18.4,25.3,N/A,,Clear,350,2007-11-06 16:54:00
12:54 PM,48.0,18.0,30,30.00,10.0,NNW,23.0,28.8,N/A,,Clear,330,2007-11-06 17:54:00
1:54 PM,48.9,18.0,29,30.01,10.0,NNW,20.7,25.3,N/A,,Clear,330,2007-11-06 18:54:00
2:54 PM,48.9,17.1,28,30.03,10.0,NNW,19.6,25.3,N/A,,Clear,330,2007-11-06 19:54:00
3:54 PM,46.9,14.0,27,30.05,10.0,NNW,15.0,21.9,N/A,,Clear,340,2007-11-06 20:54:00
4:54 PM,44.1,15.1,31,30.08,10.0,NNW,12.7,26.5,N/A,,Clear,340,2007-11-06 21:54:00
5:54 PM,41.0,15.1,35,30.12,10.0,NNW,10.4,-,N/A,,Clear,340,2007-11-06 22:54:00
6:54 PM,39.0,17.1,41,30.15,10.0,NNW,12.7,-,N/A,,Clear,330,2007-11-06 23:54:00
7:54 PM,37.9,17.1,43,30.17,10.0,NNW,9.2,-,N/A,,Clear,340,2007-11-07 00:54:00
8:54 PM,37.0,17.1,44,30.19,10.0,North,5.8,-,N/A,,Clear,360,2007-11-07 01:54:00
9:54 PM,37.0,17.1,44,30.21,10.0,NNW,15.0,-,N/A,,Clear,340,2007-11-07 02:54:00
10:54 PM,36.0,18.0,48,30.22,10.0,North,11.5,-,N/A,,Clear,350,2007-11-07 03:54:00
11:54 PM,35.1,19.0,52,30.22,10.0,NNW,10.4,-,N/A,,Clear,340,2007-11-07 04:54:00